x

Long Island - 30 Nm South Of Islip, Ny (44025) Wave Buoy

7:50pm - Tue 21st Nov 2017 All times are EST. -5 hours from GMT.

  • Sig Wave height 8.2ft
  • Swell Direction
  • Peak Period 7s
  • Average Period 6s
  • Wind
    25mph, 29mph gusts
  • Sea Temp 56°f
  • Air Temp 59°f
  • Sea Pressure 1018mb
  • Long Island - 30 Nm South Of Islip, Ny
  • Long Island - 30 Nm South Of Islip, Ny

More Historic Weather Station data

Upgrade to MSW Pro to gain access to the past 30 days of data for over 8000 Wavebouys and Weather Stations around the globe.

Join

Comparision Forecast

View Surf forecast
   
Tue 11/21 7:50pm 8ft 7s 6s 25 29 mph 1018mb 56f 59f
6:50pm 8ft 7s 6s 25 29 mph 1018mb 56f 58f
5:50pm 7.5ft 8s 5s 25 34 mph 1017.5mb 56f 58f
4:50pm 7ft 7s 5s 27 36 mph 1017.2mb 57f 58f
3:50pm 7ft 7s 5s 25 29 mph 1017.3mb 56f 56f
2:50pm 8ft 7s 6s 29 34 mph 1017.8mb 56f 56f
1:50pm 8ft 7s 6s 29 36 mph 1018.3mb 56f 56f
12:50pm 7.5ft 7s 5s 29 36 mph 1019.1mb 56f 55f
11:50am 7ft 7s 5s 27 31 mph 1019.9mb 56f 55f
10:50am 6ft 7s 5s 27 34 mph 1020.8mb 56f 55f
9:50am 6ft 6s 5s 27 31 mph 1021.2mb 56f 55f
8:50am 5.5ft 6s 5s 22 31 mph 1021.3mb 57f 54f
6:50am 6.5ft 6s 5s 27 31 mph 1020.9mb 56f 54f
5:50am 6.5ft 6s 5s 25 31 mph 1020.6mb 56f 54f
4:50am 6.5ft 6s 5s 25 31 mph 1020.6mb 56f 53f
3:50am 6ft 6s 5s 27 31 mph 1020.6mb 56f 53f
2:50am 7ft 6s 5s 27 31 mph 1020.7mb 56f 53f
1:50am 5.5ft 6s 5s 27 31 mph 1020.8mb 56f 52f
12:50am 6ft 6s 5s 25 31 mph 1020.7mb 57f 52f
Mon 11/20 11:50pm 5ft 6s 4s 27 34 mph 1020.8mb 57f 51f
10:50pm 5ft 6s 5s 25 29 mph 1020.8mb 57f 50f
9:50pm 5ft 6s 5s 25 31 mph 1020.4mb 57f 50f
8:50pm 5ft 5s 5s 25 31 mph 1019.9mb 57f 49f
7:50pm 5.5ft 6s 5s 25 31 mph 1019.8mb 57f 49f
6:50pm 5ft 6s 5s 27 34 mph 1019.5mb 57f 48f
5:50pm 5.5ft 5s 5s 25 29 mph 1019.4mb 57f 48f
4:50pm 5ft 5s 5s 22 29 mph 1019mb 57f 47f
3:50pm 5ft 5s 5s 22 27 mph 1018.5mb 57f 47f
2:50pm 5ft 5s 5s 22 29 mph 1017.6mb 57f 46f
1:50pm 5ft 6s 5s 25 31 mph 1016.9mb 57f 46f
12:50pm 6ft 6s 5s 25 29 mph 1016.8mb 57f 44f
11:50am 6ft 6s 5s 25 29 mph 1017.1mb 57f 43f
10:50am 6.5ft 6s 5s 27 31 mph 1017.5mb 57f 42f
9:50am 6ft 6s 5s 27 34 mph 1017.5mb 57f 42f
8:50am 6ft 6s 5s 29 36 mph 1016.8mb 57f 42f
7:50am 6ft 5s 5s 29 36 mph 1015.9mb 57f 42f
6:50am 7ft 6s 5s 27 34 mph 1014.7mb 57f 43f
5:50am 7ft 6s 5s 27 34 mph 1013.8mb 57f 42f
4:50am 7ft 6s 5s 29 36 mph 1012.6mb 57f 43f
3:50am 7.5ft 6s 6s 29 36 mph 1011.6mb 57f 43f
2:50am 7ft 6s 5s 31 38 mph 1010.5mb 57f 44f
1:50am 7ft 6s 5s 27 31 mph 1009.8mb 57f 45f
12:50am 7ft 6s 5s 29 36 mph 1008.8mb 57f 46f
Sun 11/19 11:50pm 7ft 5s 5s 29 36 mph 1008.2mb 57f 46f
10:50pm 6ft 5s 5s 27 34 mph 1007.6mb 57f 47f
9:50pm 6ft 10s 5s 20 29 mph 1007.2mb 57f 46f
8:50pm 6ft 10s 5s 25 34 mph 1006.2mb 57f 49f
7:50pm 6.5ft 10s 5s 20 27 mph 1005.7mb 57f 49f
6:50pm 7ft 6s 5s 25 29 mph 1005.1mb 57f 49f
5:50pm 8ft 6s 6s 25 31 mph 1004mb 57f 48f
4:50pm 9ft 9s 6s 29 38 mph 1002.3mb 57f 49f
3:50pm 9ft 7s 6s 29 38 mph 1000.8mb 57f 50f
2:50pm 10ft 7s 6s 31 40 mph 999mb 57f 52f
1:50pm 11ft 7s 6s 31 38 mph 998.3mb 58f 52f
11:50am 13ft 6s 7s 34 40 mph 996.4mb 58f 52f
10:50am 12ft 9s 7s 36 45 mph 995mb 58f 53f
9:50am 11.5ft 9s 6s 36 43 mph 993.6mb 58f 53f
8:50am 12.5ft 9s 7s 34 45 mph 991.3mb 58f 58f
7:50am 13ft 9s 7s 34 45 mph 990.3mb 58f 60f
6:50am 11ft 10s 7s 36 43 mph 990.4mb 58f 60f
5:50am 12ft 8s 7s 31 38 mph 991.2mb 58f 60f
4:50am 13ft 10s 7s 31 43 mph 991.9mb 58f 60f
3:50am 13.5ft 10s 7s 34 40 mph 992.7mb 58f 60f
2:50am 13.5ft 9s 7s 31 40 mph 993.8mb 58f 61f
1:50am 12.5ft 9s 7s 31 40 mph 994.7mb 58f 62f
12:50am 11ft 9s 7s 34 40 mph 995.3mb 58f 62f
Sat 11/18 11:50pm 9.5ft 8s 6s 31 40 mph 996.9mb 58f 61f
10:50pm 9ft 8s 6s 29 36 mph 998.5mb 58f 61f
9:50pm 8.5ft 8s 6s 27 34 mph 1000.1mb 58f 60f
8:50pm 8ft 8s 6s 25 31 mph 1001.2mb 58f 60f
7:50pm 9ft 7s 6s 25 29 mph 1002.7mb 58f 59f
6:50pm 8ft 7s 6s 29 38 mph 1003mb 58f 59f
5:50pm 8ft 7s 6s 27 34 mph 1003.6mb 58f 58f
4:50pm 7.5ft 6s 5s 27 31 mph 1004.3mb 58f 58f
3:50pm 7ft 6s 5s 27 34 mph 1004.9mb 58f 57f
2:50pm 6ft 6s 5s 27 34 mph 1005.9mb 58f 56f
1:50pm 5ft 5s 5s 25 29 mph 1007.9mb 58f 56f
12:50pm 4.5ft 5s 4s 25 29 mph 1009.3mb 58f 55f
11:50am 3.5ft 5s 4s 25 29 mph 1010.8mb 58f 54f
10:50am 3.5ft 4s 4s 20 25 mph 1012.5mb 58f 53f
9:50am 2.5ft 4s 3s 20 25 mph 1013.9mb 58f 52f
8:50am 2ft 3s 3s 18 20 mph 1014.2mb 58f 50f
7:50am 1.3ft 11s 4s 16 20 mph 1015.2mb 58f 50f
6:50am 1.3ft 11s 4s 11 16 mph 1016mb 57f 49f
5:50am 1.3ft 11s 4s 9 11 mph 1016.2mb 57f 46f
4:50am 1.3ft 11s 4s 4 7 mph 1016.4mb 57f 46f
3:50am 1.3ft 4s 4s 2 4 mph 1016.5mb 58f 46f
2:50am 1.6ft 4s 4s 7 9 mph 1017.3mb 58f 46f